Weather History for Graham, TX

Change the Weather History Date:

Sunday, May 11, 2014

  Actual Average (KMWL) Record (KMWL)
Temperature  
Mean Temperature 80 °F -  
Max Temperature 92 °F 81 °F 96 °F (2000)
Min Temperature 69 °F 59 °F 46 °F (2006)
Cooling Degree Days 16    
Growing Degree Days 30 (Base 50)    
Moisture  
Dew Point 61 °F    
Average Humidity 53    
Maximum Humidity 80    
Minimum Humidity 31    
Precipitation  
Precipitation 0.00 in - - ()
Sea Level Pressure  
Sea Level Pressure 29.69 in    
Wind  
Wind Speed 14 mph (SSE)    
Max Wind Speed 23 mph    
Max Gust Speed 33 mph    
Visibility 10 miles    
Events      
Averages and records for this station are not official NWS values.
T = Trace of Precipitation, MM = Missing Value Source: NWS Daily Summary

Daily Weather History Graph

Daily Weather History Graph

Search for Another Location

Airport:

Trip Planner

Search our weather history database for the weather conditions in past years. The results will help you decide how hot, cold, wet, or windy it might be!

Date:

Astronomy

May. 11, 2014 Rise Set
Actual Time 6:37 AM CDT 8:24 PM CDT
Civil Twilight 6:10 AM CDT 8:51 PM CDT
Nautical Twilight 5:38 AM CDT 9:23 PM CDT
Astronomical Twilight 5:03 AM CDT 9:58 PM CDT
Moon 5:30 PM CDT (5/11) 4:32 AM CDT (5/11)
Length of Visible Light 14h 40m
Length of Day
13h 46m
Waxing Gibbous, 89% of the Moon is Illuminated
May 11
Waxing Gibbous
May 14
Full
May 21
Last Quarter
May 28
New
Jun 5
First Quarter

Hourly Weather History & Observations

Time (CDT) Temp. Heat Index Dew Point Humidity Pressure Visibility Wind Dir Wind Speed Gust Speed Precip Events Conditions
12:15 AM 78.4 °F - 63.1 °F 59% 29.72 in 10.0 mi SE 11.5 mph 23.0 mph N/A   Clear
12:35 AM 77.9 °F - 63.5 °F 61% 29.72 in 10.0 mi SE 11.5 mph 18.4 mph N/A   Clear
12:55 AM 77.5 °F - 63.5 °F 62% 29.72 in 10.0 mi SE 9.2 mph 18.4 mph N/A   Clear
1:15 AM 77.2 °F - 63.7 °F 63% 29.71 in 10.0 mi SE 12.7 mph 23.0 mph N/A   Clear
1:35 AM 77.0 °F - 63.7 °F 63% 29.71 in 10.0 mi SSE 15.0 mph 24.2 mph N/A   Clear
1:55 AM 76.3 °F - 63.5 °F 64% 29.71 in 10.0 mi SE 11.5 mph 21.9 mph N/A   Clear
2:15 AM 75.6 °F - 63.1 °F 65% 29.71 in 10.0 mi SSE 11.5 mph 20.7 mph N/A   Clear
2:35 AM 75.0 °F - 63.0 °F 66% 29.71 in 10.0 mi SSE 12.7 mph 18.4 mph N/A   Clear
2:55 AM 74.5 °F - 63.1 °F 68% 29.72 in 10.0 mi SSE 10.4 mph 18.4 mph N/A   Clear
3:15 AM 74.3 °F - 63.1 °F 68% 29.72 in 10.0 mi SSE 12.7 mph 19.6 mph N/A   Clear
3:35 AM 73.4 °F - 63.1 °F 70% 29.72 in 10.0 mi SSE 9.2 mph 19.6 mph N/A   Clear
3:55 AM 72.9 °F - 63.3 °F 72% 29.72 in 10.0 mi SSE 11.5 mph 21.9 mph N/A   Clear
4:15 AM 72.5 °F - 63.5 °F 73% 29.72 in 10.0 mi SSE 11.5 mph 18.4 mph N/A   Clear
4:35 AM 71.8 °F - 63.3 °F 75% 29.72 in 10.0 mi SSE 10.4 mph 18.4 mph N/A   Clear
4:55 AM 71.2 °F - 63.0 °F 75% 29.72 in 10.0 mi SSE 10.4 mph 17.3 mph N/A   Clear
5:15 AM 70.9 °F - 62.6 °F 75% 29.72 in 10.0 mi SSE 8.1 mph 18.4 mph N/A   Clear
5:35 AM 70.7 °F - 62.1 °F 74% 29.72 in 10.0 mi SSE 9.2 mph 18.4 mph N/A   Clear
5:55 AM 69.8 °F - 62.6 °F 78% 29.72 in 10.0 mi SE 12.7 mph 19.6 mph N/A   Clear
6:15 AM 69.8 °F - 63.5 °F 80% 29.73 in 10.0 mi SE 12.7 mph 20.7 mph N/A   Clear
6:55 AM 69.4 °F - 63.0 °F 80% 29.74 in 10.0 mi SE 11.5 mph 17.3 mph N/A   Mostly Cloudy
7:15 AM 69.8 °F - 62.6 °F 78% 29.75 in 10.0 mi SE 12.7 mph 18.4 mph N/A   Mostly Cloudy
7:35 AM 70.7 °F - 62.2 °F 75% 29.76 in 10.0 mi SSE 11.5 mph 17.3 mph N/A   Scattered Clouds
7:55 AM 71.4 °F - 61.9 °F 72% 29.76 in 10.0 mi SSE 11.5 mph 21.9 mph N/A   Clear
8:15 AM 72.5 °F - 61.7 °F 69% 29.76 in 10.0 mi SSE 13.8 mph 28.8 mph N/A   Scattered Clouds
8:35 AM 73.6 °F - 61.9 °F 67% 29.76 in 10.0 mi SSE 11.5 mph 20.7 mph N/A   Clear
8:55 AM 74.5 °F - 61.9 °F 65% 29.76 in 10.0 mi SSE 13.8 mph 24.2 mph N/A   Clear
9:15 AM 75.9 °F - 61.9 °F 62% 29.76 in 10.0 mi SSE 15.0 mph 24.2 mph N/A   Clear
9:35 AM 76.3 °F - 61.9 °F 61% 29.76 in 10.0 mi SSE 16.1 mph 29.9 mph N/A   Clear
9:55 AM 77.9 °F - 62.1 °F 58% 29.76 in 10.0 mi SSE 15.0 mph 28.8 mph N/A   Clear
10:15 AM 78.8 °F - 61.0 °F 54% 29.76 in 10.0 mi SSE 15.0 mph 25.3 mph N/A   Clear
10:35 AM 79.9 °F - 61.2 °F 53% 29.76 in 10.0 mi SSE 17.3 mph 26.5 mph N/A   Clear
10:55 AM 80.8 °F 81.6 °F 61.2 °F 51% 29.75 in 10.0 mi SE 19.6 mph 25.3 mph N/A   Clear
11:15 AM 81.7 °F 82.3 °F 61.0 °F 49% 29.74 in 10.0 mi SE 16.1 mph 25.3 mph N/A   Clear
11:35 AM 82.9 °F 83.3 °F 60.6 °F 47% 29.75 in 10.0 mi SSE 16.1 mph 26.5 mph N/A   Clear
11:55 AM 84.4 °F 84.6 °F 61.0 °F 45% 29.74 in 10.0 mi SE 18.4 mph 25.3 mph N/A   Clear
12:15 PM 85.1 °F 85.0 °F 60.4 °F 43% 29.74 in 10.0 mi SSE 18.4 mph 27.6 mph N/A   Clear
12:35 PM 85.5 °F 85.0 °F 59.2 °F 41% 29.74 in 10.0 mi South 16.1 mph 28.8 mph N/A   Clear
12:55 PM 86.5 °F 86.3 °F 60.1 °F 41% 29.73 in 10.0 mi SSE 16.1 mph 27.6 mph N/A   Clear
1:15 PM 87.3 °F 86.5 °F 58.8 °F 38% 29.71 in 10.0 mi SSE 19.6 mph 27.6 mph N/A   Clear
1:35 PM 88.9 °F 87.7 °F 57.9 °F 35% 29.71 in 10.0 mi South 19.6 mph 25.3 mph N/A   Clear
1:55 PM 89.2 °F 88.2 °F 57.9 °F 35% 29.70 in 10.0 mi SSE 18.4 mph 28.8 mph N/A   Clear
2:15 PM 90.1 °F 88.8 °F 57.6 °F 33% 29.68 in 10.0 mi SSE 18.4 mph 26.5 mph N/A   Clear
2:35 PM 90.7 °F 89.2 °F 57.0 °F 32% 29.67 in 10.0 mi South 20.7 mph 32.2 mph N/A   Clear
2:55 PM 91.6 °F 90.1 °F 57.0 °F 31% 29.66 in 10.0 mi SSE 13.8 mph 28.8 mph N/A   Clear
3:15 PM 91.2 °F 89.9 °F 57.7 °F 32% 29.65 in 10.0 mi SSE 17.3 mph 33.4 mph N/A   Clear
3:35 PM 92.1 °F 90.8 °F 57.4 °F 31% 29.64 in 10.0 mi SSE 13.8 mph 31.1 mph N/A   Clear
3:55 PM 92.3 °F 91.3 °F 58.3 °F 32% 29.63 in 10.0 mi SSE 13.8 mph 25.3 mph N/A   Clear
4:15 PM 92.3 °F 91.3 °F 58.8 °F 32% 29.62 in 10.0 mi SSE 13.8 mph 26.5 mph N/A   Clear
4:35 PM 92.5 °F 91.6 °F 58.6 °F 32% 29.61 in 10.0 mi SSE 18.4 mph 28.8 mph N/A   Clear
5:15 PM 91.8 °F 90.9 °F 58.6 °F 33% 29.60 in 10.0 mi SE 23.0 mph 29.9 mph N/A   Clear
5:35 PM 91.4 °F 90.7 °F 59.2 °F 34% 29.60 in 10.0 mi SE 18.4 mph 29.9 mph N/A   Clear
5:55 PM 91.2 °F 90.5 °F 59.0 °F 34% 29.59 in 10.0 mi SE 23.0 mph 31.1 mph N/A   Clear
6:15 PM 90.7 °F 90.1 °F 59.4 °F 35% 29.59 in 10.0 mi SE 17.3 mph 31.1 mph N/A   Clear
6:35 PM 90.0 °F 89.1 °F 58.8 °F 35% 29.59 in 10.0 mi SE 19.6 mph 31.1 mph N/A   Clear
6:55 PM 89.6 °F 88.6 °F 58.5 °F 35% 29.59 in 10.0 mi SE 19.6 mph 28.8 mph N/A   Clear
7:15 PM 89.1 °F 88.2 °F 58.6 °F 36% 29.59 in 10.0 mi SE 23.0 mph 31.1 mph N/A   Clear
7:55 PM 87.3 °F 87.0 °F 60.4 °F 40% 29.60 in 10.0 mi SE 17.3 mph 24.2 mph N/A   Clear
8:15 PM 86.2 °F 86.3 °F 61.2 °F 43% 29.60 in 10.0 mi SE 16.1 mph 24.2 mph N/A   Clear
8:35 PM 85.6 °F 85.9 °F 61.7 °F 44% 29.62 in 10.0 mi SE 11.5 mph 26.5 mph N/A   Clear
8:55 PM 84.9 °F 85.4 °F 62.2 °F 46% 29.62 in 10.0 mi SE 11.5 mph 23.0 mph N/A   Clear
9:15 PM 84.2 °F 85.0 °F 62.6 °F 48% 29.63 in 10.0 mi SE 12.7 mph 26.5 mph N/A   Clear
9:35 PM 83.8 °F 84.7 °F 62.8 °F 49% 29.64 in 10.0 mi SE 13.8 mph 25.3 mph N/A   Clear
9:55 PM 83.1 °F 84.2 °F 63.5 °F 51% 29.64 in 10.0 mi SE 15.0 mph 28.8 mph N/A   Clear
10:15 PM 82.4 °F 83.7 °F 63.7 °F 53% 29.65 in 10.0 mi SE 15.0 mph 24.2 mph N/A   Clear
10:35 PM 81.7 °F 83.2 °F 64.0 °F 55% 29.65 in 10.0 mi SE 18.4 mph 28.8 mph N/A   Clear
10:55 PM 81.3 °F 82.7 °F 63.9 °F 55% 29.66 in 10.0 mi SE 15.0 mph 26.5 mph N/A   Clear
11:15 PM 80.8 °F 82.2 °F 63.9 °F 56% 29.66 in 10.0 mi SSE 19.6 mph 26.5 mph N/A   Clear
11:35 PM 80.1 °F 81.7 °F 64.0 °F 58% 29.67 in 10.0 mi SSE 18.4 mph 31.1 mph N/A   Clear
11:55 PM 79.7 °F - 64.4 °F 59% 29.67 in 10.0 mi SSE 19.6 mph 29.9 mph N/A   Clear